Terminal Aerodrome Forecast
Issued by NWS

Home | Current Version | Previous Version | Text Only | Print | Product List | Glossary Off
Versions: 1 2 3 4 5 6 7 8 9 10 11 12 13 14 15 16 17 18 19 20 21 22 23 24 25 26

829
FTUS43 KABR 161352 AAB
TAFPIR
TAF AMD
KPIR 161352Z 1614/1712 22005KT P6SM SCT005
      TEMPO 1614/1616 BKN006
     FM161600 20004KT P6SM FEW250
     FM162200 16008KT P6SM FEW250
     FM170900 15004KT P6SM FEW250=

USA.gov is the U.S. government's official web portal to all federal, state and local government web resources and services.